sensor_id;sensor_type;location;lat;lon;timestamp;P1;durP1;ratioP1;P2;durP2;ratioP2
19897;SDS011;10111;50.814;4.572;2023-04-25T00:01:47;15.67;;;4.23;;
19897;SDS011;10111;50.814;4.572;2023-04-25T00:04:13;13.30;;;5.13;;
19897;SDS011;10111;50.814;4.572;2023-04-25T00:06:39;10.03;;;4.67;;
19897;SDS011;10111;50.814;4.572;2023-04-25T00:09:05;10.03;;;4.40;;
19897;SDS011;10111;50.814;4.572;2023-04-25T00:11:36;11.93;;;6.73;;
19897;SDS011;10111;50.814;4.572;2023-04-25T00:14:02;11.67;;;4.00;;
19897;SDS011;10111;50.814;4.572;2023-04-25T00:16:29;9.10;;;3.97;;
19897;SDS011;10111;50.814;4.572;2023-04-25T00:18:58;9.47;;;3.83;;
19897;SDS011;10111;50.814;4.572;2023-04-25T00:21:24;12.80;;;4.70;;
19897;SDS011;10111;50.814;4.572;2023-04-25T00:23:52;11.37;;;4.63;;
19897;SDS011;10111;50.814;4.572;2023-04-25T00:26:18;12.50;;;4.03;;
19897;SDS011;10111;50.814;4.572;2023-04-25T00:28:43;12.83;;;4.97;;
19897;SDS011;10111;50.814;4.572;2023-04-25T00:31:09;10.27;;;4.37;;
19897;SDS011;10111;50.814;4.572;2023-04-25T00:33:35;12.77;;;5.00;;
19897;SDS011;10111;50.814;4.572;2023-04-25T00:36:01;12.23;;;4.33;;
19897;SDS011;10111;50.814;4.572;2023-04-25T00:38:26;10.87;;;3.97;;
19897;SDS011;10111;50.814;4.572;2023-04-25T00:40:52;9.87;;;4.97;;
19897;SDS011;10111;50.814;4.572;2023-04-25T00:43:18;8.57;;;3.90;;
19897;SDS011;10111;50.814;4.572;2023-04-25T00:45:44;7.77;;;3.93;;
19897;SDS011;10111;50.814;4.572;2023-04-25T00:48:16;10.20;;;4.40;;
19897;SDS011;10111;50.814;4.572;2023-04-25T00:50:43;11.47;;;3.83;;
19897;SDS011;10111;50.814;4.572;2023-04-25T00:53:18;8.67;;;4.63;;
19897;SDS011;10111;50.814;4.572;2023-04-25T00:55:44;12.10;;;4.67;;
19897;SDS011;10111;50.814;4.572;2023-04-25T00:58:10;14.07;;;5.00;;
19897;SDS011;10111;50.814;4.572;2023-04-25T01:00:36;13.93;;;4.17;;
19897;SDS011;10111;50.814;4.572;2023-04-25T01:03:02;13.50;;;4.90;;
19897;SDS011;10111;50.814;4.572;2023-04-25T01:05:28;9.63;;;3.77;;
19897;SDS011;10111;50.814;4.572;2023-04-25T01:07:54;10.03;;;3.90;;
19897;SDS011;10111;50.814;4.572;2023-04-25T01:10:20;13.37;;;5.43;;
19897;SDS011;10111;50.814;4.572;2023-04-25T01:12:46;12.10;;;3.70;;
19897;SDS011;10111;50.814;4.572;2023-04-25T01:15:12;19.43;;;5.60;;
19897;SDS011;10111;50.814;4.572;2023-04-25T01:17:38;12.60;;;4.37;;
19897;SDS011;10111;50.814;4.572;2023-04-25T01:20:06;10.93;;;3.70;;
19897;SDS011;10111;50.814;4.572;2023-04-25T01:22:34;13.13;;;4.70;;
19897;SDS011;10111;50.814;4.572;2023-04-25T01:25:00;7.33;;;3.83;;
19897;SDS011;10111;50.814;4.572;2023-04-25T01:27:26;7.57;;;3.87;;
19897;SDS011;10111;50.814;4.572;2023-04-25T01:29:53;10.03;;;4.40;;
19897;SDS011;10111;50.814;4.572;2023-04-25T01:32:21;10.23;;;5.03;;
19897;SDS011;10111;50.814;4.572;2023-04-25T01:34:48;12.97;;;4.13;;
19897;SDS011;10111;50.814;4.572;2023-04-25T01:37:14;11.40;;;4.30;;
19897;SDS011;10111;50.814;4.572;2023-04-25T01:39:41;11.60;;;4.40;;
19897;SDS011;10111;50.814;4.572;2023-04-25T01:42:07;10.50;;;4.00;;
19897;SDS011;10111;50.814;4.572;2023-04-25T01:44:33;20.33;;;5.87;;
19897;SDS011;10111;50.814;4.572;2023-04-25T01:46:58;11.03;;;5.20;;
19897;SDS011;10111;50.814;4.572;2023-04-25T01:49:24;10.63;;;4.87;;
19897;SDS011;10111;50.814;4.572;2023-04-25T01:51:50;13.63;;;4.50;;
19897;SDS011;10111;50.814;4.572;2023-04-25T01:54:15;8.20;;;4.17;;
19897;SDS011;10111;50.814;4.572;2023-04-25T01:56:43;12.27;;;4.50;;
19897;SDS011;10111;50.814;4.572;2023-04-25T01:59:14;10.83;;;4.33;;
19897;SDS011;10111;50.814;4.572;2023-04-25T02:01:40;11.67;;;5.23;;
19897;SDS011;10111;50.814;4.572;2023-04-25T02:04:05;9.67;;;4.60;;
19897;SDS011;10111;50.814;4.572;2023-04-25T02:06:31;13.63;;;4.67;;
19897;SDS011;10111;50.814;4.572;2023-04-25T02:08:57;13.50;;;4.93;;
19897;SDS011;10111;50.814;4.572;2023-04-25T02:11:22;14.87;;;4.60;;
19897;SDS011;10111;50.814;4.572;2023-04-25T02:13:48;18.03;;;4.93;;
19897;SDS011;10111;50.814;4.572;2023-04-25T02:16:14;14.17;;;4.57;;
19897;SDS011;10111;50.814;4.572;2023-04-25T02:18:40;14.40;;;5.10;;
19897;SDS011;10111;50.814;4.572;2023-04-25T02:21:05;12.43;;;5.40;;
19897;SDS011;10111;50.814;4.572;2023-04-25T02:23:31;18.03;;;5.37;;
19897;SDS011;10111;50.814;4.572;2023-04-25T02:25:57;13.50;;;4.60;;
19897;SDS011;10111;50.814;4.572;2023-04-25T02:28:23;15.70;;;5.00;;
19897;SDS011;10111;50.814;4.572;2023-04-25T02:30:50;10.80;;;5.23;;
19897;SDS011;10111;50.814;4.572;2023-04-25T02:33:15;13.60;;;5.43;;
19897;SDS011;10111;50.814;4.572;2023-04-25T02:35:41;16.80;;;5.00;;
19897;SDS011;10111;50.814;4.572;2023-04-25T02:38:07;13.27;;;5.27;;
19897;SDS011;10111;50.814;4.572;2023-04-25T02:40:33;9.13;;;4.23;;
19897;SDS011;10111;50.814;4.572;2023-04-25T02:42:58;5.80;;;3.60;;
19897;SDS011;10111;50.814;4.572;2023-04-25T02:45:24;7.97;;;3.80;;
19897;SDS011;10111;50.814;4.572;2023-04-25T02:47:50;11.73;;;5.27;;
19897;SDS011;10111;50.814;4.572;2023-04-25T02:50:15;9.93;;;3.87;;
19897;SDS011;10111;50.814;4.572;2023-04-25T02:52:41;6.80;;;4.53;;
19897;SDS011;10111;50.814;4.572;2023-04-25T02:55:07;9.37;;;3.90;;
19897;SDS011;10111;50.814;4.572;2023-04-25T02:57:33;9.63;;;3.70;;
19897;SDS011;10111;50.814;4.572;2023-04-25T02:59:58;8.90;;;4.23;;
19897;SDS011;10111;50.814;4.572;2023-04-25T03:02:24;5.70;;;3.53;;
19897;SDS011;10111;50.814;4.572;2023-04-25T03:04:49;13.77;;;3.93;;
19897;SDS011;10111;50.814;4.572;2023-04-25T03:07:15;12.10;;;4.50;;
19897;SDS011;10111;50.814;4.572;2023-04-25T03:09:41;8.13;;;4.87;;
19897;SDS011;10111;50.814;4.572;2023-04-25T03:12:06;6.03;;;4.00;;
19897;SDS011;10111;50.814;4.572;2023-04-25T03:14:32;10.83;;;5.20;;
19897;SDS011;10111;50.814;4.572;2023-04-25T03:16:58;12.03;;;4.40;;
19897;SDS011;10111;50.814;4.572;2023-04-25T03:19:23;10.40;;;4.47;;
19897;SDS011;10111;50.814;4.572;2023-04-25T03:21:49;8.37;;;4.23;;
19897;SDS011;10111;50.814;4.572;2023-04-25T03:24:15;9.37;;;4.67;;
19897;SDS011;10111;50.814;4.572;2023-04-25T03:26:40;13.83;;;6.63;;
19897;SDS011;10111;50.814;4.572;2023-04-25T03:29:06;12.63;;;4.80;;
19897;SDS011;10111;50.814;4.572;2023-04-25T03:31:32;13.10;;;4.53;;
19897;SDS011;10111;50.814;4.572;2023-04-25T03:33:57;7.70;;;3.60;;
19897;SDS011;10111;50.814;4.572;2023-04-25T03:36:23;8.63;;;4.00;;
19897;SDS011;10111;50.814;4.572;2023-04-25T03:38:48;6.87;;;4.10;;
19897;SDS011;10111;50.814;4.572;2023-04-25T03:41:15;11.80;;;5.03;;
19897;SDS011;10111;50.814;4.572;2023-04-25T03:43:40;11.57;;;4.80;;
19897;SDS011;10111;50.814;4.572;2023-04-25T03:46:06;9.33;;;4.20;;
19897;SDS011;10111;50.814;4.572;2023-04-25T03:48:31;13.53;;;4.93;;
19897;SDS011;10111;50.814;4.572;2023-04-25T03:50:57;11.33;;;5.03;;
19897;SDS011;10111;50.814;4.572;2023-04-25T03:53:24;19.63;;;5.33;;
19897;SDS011;10111;50.814;4.572;2023-04-25T03:55:50;11.97;;;5.20;;
19897;SDS011;10111;50.814;4.572;2023-04-25T03:58:16;12.60;;;4.37;;
19897;SDS011;10111;50.814;4.572;2023-04-25T04:00:42;14.23;;;4.40;;
19897;SDS011;10111;50.814;4.572;2023-04-25T04:03:07;11.83;;;4.37;;
19897;SDS011;10111;50.814;4.572;2023-04-25T04:05:33;13.03;;;4.37;;
19897;SDS011;10111;50.814;4.572;2023-04-25T04:07:59;14.97;;;4.60;;
19897;SDS011;10111;50.814;4.572;2023-04-25T04:10:25;17.27;;;5.00;;
19897;SDS011;10111;50.814;4.572;2023-04-25T04:12:51;9.70;;;4.30;;
19897;SDS011;10111;50.814;4.572;2023-04-25T04:15:16;9.53;;;3.70;;
19897;SDS011;10111;50.814;4.572;2023-04-25T04:17:42;13.47;;;4.93;;
19897;SDS011;10111;50.814;4.572;2023-04-25T04:20:08;14.23;;;5.00;;
19897;SDS011;10111;50.814;4.572;2023-04-25T04:22:34;9.73;;;3.90;;
19897;SDS011;10111;50.814;4.572;2023-04-25T04:25:00;9.83;;;3.70;;
19897;SDS011;10111;50.814;4.572;2023-04-25T04:27:26;11.60;;;4.03;;
19897;SDS011;10111;50.814;4.572;2023-04-25T04:29:53;10.07;;;3.50;;
19897;SDS011;10111;50.814;4.572;2023-04-25T04:32:18;11.33;;;4.27;;
19897;SDS011;10111;50.814;4.572;2023-04-25T04:34:44;10.07;;;4.73;;
19897;SDS011;10111;50.814;4.572;2023-04-25T04:37:10;10.17;;;3.80;;
19897;SDS011;10111;50.814;4.572;2023-04-25T04:39:38;10.37;;;4.47;;
19897;SDS011;10111;50.814;4.572;2023-04-25T04:42:03;5.03;;;3.80;;
19897;SDS011;10111;50.814;4.572;2023-04-25T04:44:30;6.63;;;3.70;;
19897;SDS011;10111;50.814;4.572;2023-04-25T04:46:57;11.30;;;4.57;;
19897;SDS011;10111;50.814;4.572;2023-04-25T04:49:23;13.77;;;4.57;;
19897;SDS011;10111;50.814;4.572;2023-04-25T04:51:49;14.00;;;4.97;;
19897;SDS011;10111;50.814;4.572;2023-04-25T04:54:15;10.10;;;4.27;;
19897;SDS011;10111;50.814;4.572;2023-04-25T04:56:41;9.33;;;3.57;;
19897;SDS011;10111;50.814;4.572;2023-04-25T04:59:07;9.27;;;3.73;;
19897;SDS011;10111;50.814;4.572;2023-04-25T05:01:32;10.20;;;4.00;;
19897;SDS011;10111;50.814;4.572;2023-04-25T05:04:00;10.40;;;4.53;;
19897;SDS011;10111;50.814;4.572;2023-04-25T05:06:27;5.13;;;3.67;;
19897;SDS011;10111;50.814;4.572;2023-04-25T05:08:56;13.07;;;4.37;;
19897;SDS011;10111;50.814;4.572;2023-04-25T05:11:23;9.97;;;4.37;;
19897;SDS011;10111;50.814;4.572;2023-04-25T05:13:51;9.00;;;3.90;;
19897;SDS011;10111;50.814;4.572;2023-04-25T05:16:17;12.27;;;6.23;;
19897;SDS011;10111;50.814;4.572;2023-04-25T05:18:43;8.40;;;4.17;;
19897;SDS011;10111;50.814;4.572;2023-04-25T05:21:09;9.90;;;4.33;;
19897;SDS011;10111;50.814;4.572;2023-04-25T05:23:34;8.40;;;4.10;;
19897;SDS011;10111;50.814;4.572;2023-04-25T05:26:00;5.90;;;3.90;;
19897;SDS011;10111;50.814;4.572;2023-04-25T05:28:26;9.67;;;4.43;;
19897;SDS011;10111;50.814;4.572;2023-04-25T05:30:51;10.23;;;4.83;;
19897;SDS011;10111;50.814;4.572;2023-04-25T05:33:17;11.03;;;4.80;;
19897;SDS011;10111;50.814;4.572;2023-04-25T05:35:43;12.93;;;4.57;;
19897;SDS011;10111;50.814;4.572;2023-04-25T05:38:09;13.13;;;5.33;;
19897;SDS011;10111;50.814;4.572;2023-04-25T05:40:35;37.73;;;14.90;;
19897;SDS011;10111;50.814;4.572;2023-04-25T05:43:00;14.47;;;7.87;;
19897;SDS011;10111;50.814;4.572;2023-04-25T05:45:26;22.63;;;9.20;;
19897;SDS011;10111;50.814;4.572;2023-04-25T05:47:52;16.63;;;7.77;;
19897;SDS011;10111;50.814;4.572;2023-04-25T05:50:17;14.10;;;5.70;;
19897;SDS011;10111;50.814;4.572;2023-04-25T05:52:43;13.30;;;4.77;;
19897;SDS011;10111;50.814;4.572;2023-04-25T05:55:09;14.33;;;5.47;;
19897;SDS011;10111;50.814;4.572;2023-04-25T05:57:35;11.77;;;5.13;;
19897;SDS011;10111;50.814;4.572;2023-04-25T06:00:00;11.23;;;5.03;;
19897;SDS011;10111;50.814;4.572;2023-04-25T06:02:26;13.90;;;6.60;;
19897;SDS011;10111;50.814;4.572;2023-04-25T06:04:52;13.87;;;5.10;;
19897;SDS011;10111;50.814;4.572;2023-04-25T06:07:18;10.13;;;5.17;;
19897;SDS011;10111;50.814;4.572;2023-04-25T06:09:45;13.93;;;8.10;;
19897;SDS011;10111;50.814;4.572;2023-04-25T06:12:11;15.13;;;4.97;;
19897;SDS011;10111;50.814;4.572;2023-04-25T06:14:36;10.17;;;5.83;;
19897;SDS011;10111;50.814;4.572;2023-04-25T06:17:02;12.10;;;6.23;;
19897;SDS011;10111;50.814;4.572;2023-04-25T06:19:33;10.50;;;5.07;;
19897;SDS011;10111;50.814;4.572;2023-04-25T06:21:59;9.67;;;4.40;;
19897;SDS011;10111;50.814;4.572;2023-04-25T06:24:25;12.50;;;5.13;;
19897;SDS011;10111;50.814;4.572;2023-04-25T06:26:51;12.60;;;5.10;;
19897;SDS011;10111;50.814;4.572;2023-04-25T06:29:16;11.07;;;5.97;;
19897;SDS011;10111;50.814;4.572;2023-04-25T06:31:42;10.43;;;4.43;;
19897;SDS011;10111;50.814;4.572;2023-04-25T06:34:07;12.73;;;6.47;;
19897;SDS011;10111;50.814;4.572;2023-04-25T06:36:33;14.10;;;5.73;;
19897;SDS011;10111;50.814;4.572;2023-04-25T06:38:59;26.20;;;16.90;;
19897;SDS011;10111;50.814;4.572;2023-04-25T06:41:24;13.67;;;6.40;;
19897;SDS011;10111;50.814;4.572;2023-04-25T06:43:50;58.73;;;26.63;;
19897;SDS011;10111;50.814;4.572;2023-04-25T06:46:15;55.37;;;20.97;;
19897;SDS011;10111;50.814;4.572;2023-04-25T06:48:41;25.53;;;10.10;;
19897;SDS011;10111;50.814;4.572;2023-04-25T06:51:07;18.40;;;5.90;;
19897;SDS011;10111;50.814;4.572;2023-04-25T06:53:32;19.37;;;4.73;;
19897;SDS011;10111;50.814;4.572;2023-04-25T06:55:58;12.93;;;5.17;;
19897;SDS011;10111;50.814;4.572;2023-04-25T06:58:24;13.17;;;5.93;;
19897;SDS011;10111;50.814;4.572;2023-04-25T07:00:51;8.77;;;4.83;;
19897;SDS011;10111;50.814;4.572;2023-04-25T07:03:16;11.13;;;5.27;;
19897;SDS011;10111;50.814;4.572;2023-04-25T07:05:42;12.40;;;5.10;;
19897;SDS011;10111;50.814;4.572;2023-04-25T07:08:08;11.40;;;5.67;;
19897;SDS011;10111;50.814;4.572;2023-04-25T07:10:34;12.47;;;4.97;;
19897;SDS011;10111;50.814;4.572;2023-04-25T07:13:00;11.73;;;5.10;;
19897;SDS011;10111;50.814;4.572;2023-04-25T07:15:25;11.50;;;4.60;;
19897;SDS011;10111;50.814;4.572;2023-04-25T07:17:51;7.00;;;4.60;;
19897;SDS011;10111;50.814;4.572;2023-04-25T07:20:17;11.43;;;3.73;;
19897;SDS011;10111;50.814;4.572;2023-04-25T07:22:42;14.50;;;5.30;;
19897;SDS011;10111;50.814;4.572;2023-04-25T07:25:09;9.20;;;4.80;;
19897;SDS011;10111;50.814;4.572;2023-04-25T07:27:34;8.87;;;5.03;;
19897;SDS011;10111;50.814;4.572;2023-04-25T07:30:00;13.13;;;4.83;;
19897;SDS011;10111;50.814;4.572;2023-04-25T07:32:26;15.83;;;6.30;;
19897;SDS011;10111;50.814;4.572;2023-04-25T07:34:52;15.10;;;6.63;;
19897;SDS011;10111;50.814;4.572;2023-04-25T07:37:17;10.00;;;5.47;;
19897;SDS011;10111;50.814;4.572;2023-04-25T07:39:44;15.27;;;6.13;;
19897;SDS011;10111;50.814;4.572;2023-04-25T07:42:11;15.50;;;6.13;;
19897;SDS011;10111;50.814;4.572;2023-04-25T07:44:44;13.27;;;6.37;;
19897;SDS011;10111;50.814;4.572;2023-04-25T07:47:09;12.83;;;5.47;;
19897;SDS011;10111;50.814;4.572;2023-04-25T07:49:36;12.37;;;5.90;;
19897;SDS011;10111;50.814;4.572;2023-04-25T07:52:02;10.63;;;5.87;;
19897;SDS011;10111;50.814;4.572;2023-04-25T07:54:31;13.73;;;7.70;;
19897;SDS011;10111;50.814;4.572;2023-04-25T07:56:57;15.70;;;5.67;;
19897;SDS011;10111;50.814;4.572;2023-04-25T07:59:23;11.17;;;5.87;;
19897;SDS011;10111;50.814;4.572;2023-04-25T08:01:49;14.53;;;6.50;;
19897;SDS011;10111;50.814;4.572;2023-04-25T08:04:15;16.50;;;5.60;;
19897;SDS011;10111;50.814;4.572;2023-04-25T08:06:41;11.40;;;5.03;;
19897;SDS011;10111;50.814;4.572;2023-04-25T08:09:07;16.60;;;4.90;;
19897;SDS011;10111;50.814;4.572;2023-04-25T08:11:34;8.53;;;4.90;;
19897;SDS011;10111;50.814;4.572;2023-04-25T08:14:00;10.17;;;4.80;;
19897;SDS011;10111;50.814;4.572;2023-04-25T08:16:26;12.80;;;4.27;;
19897;SDS011;10111;50.814;4.572;2023-04-25T08:18:52;9.33;;;4.63;;
19897;SDS011;10111;50.814;4.572;2023-04-25T08:21:18;8.23;;;3.10;;
19897;SDS011;10111;50.814;4.572;2023-04-25T08:23:43;8.27;;;3.67;;
19897;SDS011;10111;50.814;4.572;2023-04-25T08:26:09;11.60;;;3.67;;
19897;SDS011;10111;50.814;4.572;2023-04-25T08:28:35;10.23;;;4.07;;
19897;SDS011;10111;50.814;4.572;2023-04-25T08:31:00;14.40;;;4.53;;
19897;SDS011;10111;50.814;4.572;2023-04-25T08:33:26;10.40;;;3.67;;
19897;SDS011;10111;50.814;4.572;2023-04-25T08:35:52;12.90;;;3.20;;
19897;SDS011;10111;50.814;4.572;2023-04-25T08:38:17;10.03;;;3.43;;
19897;SDS011;10111;50.814;4.572;2023-04-25T08:40:43;14.27;;;3.57;;
19897;SDS011;10111;50.814;4.572;2023-04-25T08:43:09;12.90;;;3.47;;
19897;SDS011;10111;50.814;4.572;2023-04-25T08:45:40;9.03;;;3.77;;
19897;SDS011;10111;50.814;4.572;2023-04-25T08:48:10;7.93;;;3.07;;
19897;SDS011;10111;50.814;4.572;2023-04-25T08:53:16;8.70;;;3.37;;
19897;SDS011;10111;50.814;4.572;2023-04-25T08:55:46;11.50;;;4.57;;
19897;SDS011;10111;50.814;4.572;2023-04-25T08:58:12;11.40;;;4.53;;
19897;SDS011;10111;50.814;4.572;2023-04-25T09:00:39;6.73;;;4.77;;
19897;SDS011;10111;50.814;4.572;2023-04-25T09:03:05;13.57;;;4.53;;
19897;SDS011;10111;50.814;4.572;2023-04-25T09:05:33;32.43;;;24.00;;
19897;SDS011;10111;50.814;4.572;2023-04-25T09:08:00;31.57;;;15.13;;
19897;SDS011;10111;50.814;4.572;2023-04-25T09:10:27;15.13;;;6.63;;
19897;SDS011;10111;50.814;4.572;2023-04-25T09:13:02;29.37;;;18.87;;
19897;SDS011;10111;50.814;4.572;2023-04-25T09:15:46;12.87;;;8.30;;
19897;SDS011;10111;50.814;4.572;2023-04-25T09:18:24;11.73;;;4.63;;
19897;SDS011;10111;50.814;4.572;2023-04-25T09:20:58;29.30;;;16.13;;
19897;SDS011;10111;50.814;4.572;2023-04-25T09:23:46;6.07;;;3.20;;
19897;SDS011;10111;50.814;4.572;2023-04-25T09:26:17;31.27;;;20.00;;
19897;SDS011;10111;50.814;4.572;2023-04-25T09:28:44;8.50;;;3.67;;
19897;SDS011;10111;50.814;4.572;2023-04-25T09:31:10;8.23;;;3.43;;
19897;SDS011;10111;50.814;4.572;2023-04-25T09:33:36;10.00;;;4.20;;
19897;SDS011;10111;50.814;4.572;2023-04-25T09:36:06;9.17;;;4.23;;
19897;SDS011;10111;50.814;4.572;2023-04-25T09:38:41;9.10;;;5.07;;
19897;SDS011;10111;50.814;4.572;2023-04-25T09:41:09;8.77;;;3.93;;
19897;SDS011;10111;50.814;4.572;2023-04-25T09:43:35;8.10;;;3.60;;
19897;SDS011;10111;50.814;4.572;2023-04-25T09:46:02;8.30;;;3.70;;
19897;SDS011;10111;50.814;4.572;2023-04-25T09:48:32;15.03;;;4.63;;
19897;SDS011;10111;50.814;4.572;2023-04-25T09:51:11;8.43;;;3.40;;
19897;SDS011;10111;50.814;4.572;2023-04-25T09:53:44;11.07;;;3.73;;
19897;SDS011;10111;50.814;4.572;2023-04-25T09:56:16;6.67;;;3.03;;
19897;SDS011;10111;50.814;4.572;2023-04-25T09:58:41;10.07;;;3.00;;
19897;SDS011;10111;50.814;4.572;2023-04-25T10:01:10;8.10;;;2.73;;
19897;SDS011;10111;50.814;4.572;2023-04-25T10:03:37;8.23;;;3.80;;
19897;SDS011;10111;50.814;4.572;2023-04-25T10:06:08;7.80;;;2.97;;
19897;SDS011;10111;50.814;4.572;2023-04-25T10:08:37;5.17;;;2.40;;
19897;SDS011;10111;50.814;4.572;2023-04-25T10:11:04;6.70;;;2.53;;
19897;SDS011;10111;50.814;4.572;2023-04-25T10:13:32;6.90;;;2.57;;
19897;SDS011;10111;50.814;4.572;2023-04-25T10:15:58;9.50;;;2.80;;
19897;SDS011;10111;50.814;4.572;2023-04-25T10:18:26;7.60;;;2.80;;
19897;SDS011;10111;50.814;4.572;2023-04-25T10:20:57;3.90;;;2.00;;
19897;SDS011;10111;50.814;4.572;2023-04-25T10:23:25;6.23;;;2.70;;
19897;SDS011;10111;50.814;4.572;2023-04-25T10:25:52;9.93;;;8.90;;
19897;SDS011;10111;50.814;4.572;2023-04-25T10:28:18;17.03;;;15.30;;
19897;SDS011;10111;50.814;4.572;2023-04-25T10:30:57;15.60;;;10.40;;
19897;SDS011;10111;50.814;4.572;2023-04-25T10:33:33;9.03;;;4.83;;
19897;SDS011;10111;50.814;4.572;2023-04-25T10:38:39;9.77;;;6.93;;
19897;SDS011;10111;50.814;4.572;2023-04-25T10:41:05;5.90;;;2.63;;
19897;SDS011;10111;50.814;4.572;2023-04-25T10:43:36;5.17;;;2.23;;
19897;SDS011;10111;50.814;4.572;2023-04-25T10:51:21;5.53;;;2.17;;
19897;SDS011;10111;50.814;4.572;2023-04-25T10:56:20;1.67;;;1.33;;
19897;SDS011;10111;50.814;4.572;2023-04-25T11:04:02;2.13;;;1.40;;
19897;SDS011;10111;50.814;4.572;2023-04-25T11:06:29;2.00;;;1.70;;
19897;SDS011;10111;50.814;4.572;2023-04-25T11:08:59;8.30;;;1.60;;
19897;SDS011;10111;50.814;4.572;2023-04-25T11:11:27;3.13;;;2.00;;
19897;SDS011;10111;50.814;4.572;2023-04-25T11:13:54;4.97;;;1.77;;
19897;SDS011;10111;50.814;4.572;2023-04-25T11:16:19;5.17;;;1.47;;
19897;SDS011;10111;50.814;4.572;2023-04-25T11:18:49;5.83;;;2.00;;
19897;SDS011;10111;50.814;4.572;2023-04-25T11:21:15;4.57;;;2.10;;
19897;SDS011;10111;50.814;4.572;2023-04-25T11:23:41;2.93;;;2.73;;
19897;SDS011;10111;50.814;4.572;2023-04-25T11:26:11;4.57;;;2.27;;
19897;SDS011;10111;50.814;4.572;2023-04-25T11:28:38;5.67;;;2.17;;
19897;SDS011;10111;50.814;4.572;2023-04-25T11:31:04;5.13;;;2.43;;
19897;SDS011;10111;50.814;4.572;2023-04-25T11:33:29;6.23;;;2.10;;
19897;SDS011;10111;50.814;4.572;2023-04-25T11:35:55;4.77;;;1.90;;
19897;SDS011;10111;50.814;4.572;2023-04-25T11:38:22;4.33;;;2.40;;
19897;SDS011;10111;50.814;4.572;2023-04-25T11:40:52;8.63;;;2.70;;
19897;SDS011;10111;50.814;4.572;2023-04-25T11:43:21;5.03;;;2.20;;
19897;SDS011;10111;50.814;4.572;2023-04-25T11:45:48;4.97;;;2.20;;
19897;SDS011;10111;50.814;4.572;2023-04-25T11:48:15;4.83;;;2.70;;
19897;SDS011;10111;50.814;4.572;2023-04-25T11:50:41;3.93;;;2.47;;
19897;SDS011;10111;50.814;4.572;2023-04-25T11:53:07;6.67;;;3.20;;
19897;SDS011;10111;50.814;4.572;2023-04-25T11:55:33;2.80;;;2.17;;
19897;SDS011;10111;50.814;4.572;2023-04-25T11:58:00;2.43;;;2.20;;
19897;SDS011;10111;50.814;4.572;2023-04-25T12:00:27;5.53;;;2.40;;
19897;SDS011;10111;50.814;4.572;2023-04-25T12:02:53;11.73;;;6.23;;
19897;SDS011;10111;50.814;4.572;2023-04-25T12:05:20;6.87;;;3.17;;
19897;SDS011;10111;50.814;4.572;2023-04-25T12:07:48;4.83;;;3.87;;
19897;SDS011;10111;50.814;4.572;2023-04-25T12:10:15;9.07;;;6.23;;
19897;SDS011;10111;50.814;4.572;2023-04-25T12:12:42;9.13;;;4.27;;
19897;SDS011;10111;50.814;4.572;2023-04-25T12:15:16;4.70;;;2.03;;
19897;SDS011;10111;50.814;4.572;2023-04-25T12:17:47;5.97;;;1.70;;
19897;SDS011;10111;50.814;4.572;2023-04-25T12:20:18;7.13;;;2.40;;
19897;SDS011;10111;50.814;4.572;2023-04-25T12:22:46;4.33;;;2.27;;
19897;SDS011;10111;50.814;4.572;2023-04-25T12:25:17;3.23;;;2.00;;
19897;SDS011;10111;50.814;4.572;2023-04-25T12:28:36;4.10;;;1.93;;
19897;SDS011;10111;50.814;4.572;2023-04-25T12:33:29;4.00;;;1.97;;
19897;SDS011;10111;50.814;4.572;2023-04-25T12:35:59;3.27;;;1.40;;
19897;SDS011;10111;50.814;4.572;2023-04-25T12:38:29;3.43;;;1.60;;
19897;SDS011;10111;50.814;4.572;2023-04-25T12:40:56;6.07;;;1.80;;
19897;SDS011;10111;50.814;4.572;2023-04-25T12:43:23;2.57;;;1.43;;
19897;SDS011;10111;50.814;4.572;2023-04-25T12:45:49;2.03;;;1.30;;
19897;SDS011;10111;50.814;4.572;2023-04-25T12:48:18;1.40;;;1.20;;
19897;SDS011;10111;50.814;4.572;2023-04-25T12:50:45;2.07;;;1.30;;
19897;SDS011;10111;50.814;4.572;2023-04-25T12:53:16;4.27;;;1.63;;
19897;SDS011;10111;50.814;4.572;2023-04-25T12:55:42;5.43;;;1.37;;
19897;SDS011;10111;50.814;4.572;2023-04-25T12:58:08;3.83;;;1.10;;
19897;SDS011;10111;50.814;4.572;2023-04-25T13:00:33;2.93;;;2.33;;
19897;SDS011;10111;50.814;4.572;2023-04-25T13:02:59;3.67;;;2.03;;
19897;SDS011;10111;50.814;4.572;2023-04-25T13:05:25;2.40;;;1.27;;
19897;SDS011;10111;50.814;4.572;2023-04-25T13:07:51;1.90;;;1.30;;
19897;SDS011;10111;50.814;4.572;2023-04-25T13:10:17;1.30;;;1.20;;
19897;SDS011;10111;50.814;4.572;2023-04-25T13:12:43;4.00;;;1.67;;
19897;SDS011;10111;50.814;4.572;2023-04-25T13:15:09;2.70;;;1.63;;
19897;SDS011;10111;50.814;4.572;2023-04-25T13:17:36;6.50;;;2.90;;
19897;SDS011;10111;50.814;4.572;2023-04-25T13:20:03;12.00;;;8.00;;
19897;SDS011;10111;50.814;4.572;2023-04-25T13:22:33;16.40;;;14.53;;
19897;SDS011;10111;50.814;4.572;2023-04-25T13:25:01;2.97;;;2.30;;
19897;SDS011;10111;50.814;4.572;2023-04-25T13:27:27;2.13;;;1.50;;
19897;SDS011;10111;50.814;4.572;2023-04-25T13:29:53;1.17;;;0.87;;
19897;SDS011;10111;50.814;4.572;2023-04-25T13:32:19;2.43;;;1.40;;
19897;SDS011;10111;50.814;4.572;2023-04-25T13:34:45;1.53;;;1.43;;
19897;SDS011;10111;50.814;4.572;2023-04-25T13:37:11;4.17;;;1.57;;
19897;SDS011;10111;50.814;4.572;2023-04-25T13:39:36;2.83;;;2.47;;
19897;SDS011;10111;50.814;4.572;2023-04-25T13:42:02;5.57;;;1.67;;
19897;SDS011;10111;50.814;4.572;2023-04-25T13:44:28;5.63;;;3.07;;
19897;SDS011;10111;50.814;4.572;2023-04-25T13:46:53;2.53;;;1.50;;
19897;SDS011;10111;50.814;4.572;2023-04-25T13:49:19;4.40;;;2.30;;
19897;SDS011;10111;50.814;4.572;2023-04-25T13:51:45;2.03;;;1.33;;
19897;SDS011;10111;50.814;4.572;2023-04-25T13:54:11;6.57;;;1.90;;
19897;SDS011;10111;50.814;4.572;2023-04-25T13:56:36;3.67;;;1.53;;
19897;SDS011;10111;50.814;4.572;2023-04-25T13:59:02;3.07;;;1.53;;
19897;SDS011;10111;50.814;4.572;2023-04-25T14:01:28;2.43;;;1.27;;
19897;SDS011;10111;50.814;4.572;2023-04-25T14:03:56;2.83;;;1.73;;
19897;SDS011;10111;50.814;4.572;2023-04-25T14:06:22;3.40;;;1.63;;
19897;SDS011;10111;50.814;4.572;2023-04-25T14:08:51;4.83;;;2.40;;
19897;SDS011;10111;50.814;4.572;2023-04-25T14:11:17;3.90;;;1.43;;
19897;SDS011;10111;50.814;4.572;2023-04-25T14:13:43;3.30;;;1.40;;
19897;SDS011;10111;50.814;4.572;2023-04-25T14:16:10;3.03;;;1.50;;
19897;SDS011;10111;50.814;4.572;2023-04-25T14:18:35;5.87;;;2.60;;
19897;SDS011;10111;50.814;4.572;2023-04-25T14:21:01;2.90;;;1.83;;
19897;SDS011;10111;50.814;4.572;2023-04-25T14:23:26;4.70;;;1.80;;
19897;SDS011;10111;50.814;4.572;2023-04-25T14:25:52;6.17;;;3.13;;
19897;SDS011;10111;50.814;4.572;2023-04-25T14:28:18;5.70;;;1.90;;
19897;SDS011;10111;50.814;4.572;2023-04-25T14:30:44;3.40;;;1.77;;
19897;SDS011;10111;50.814;4.572;2023-04-25T14:33:10;4.30;;;1.60;;
19897;SDS011;10111;50.814;4.572;2023-04-25T14:35:36;1.57;;;1.10;;
19897;SDS011;10111;50.814;4.572;2023-04-25T14:38:02;4.33;;;1.63;;
19897;SDS011;10111;50.814;4.572;2023-04-25T14:40:28;6.27;;;1.73;;
19897;SDS011;10111;50.814;4.572;2023-04-25T14:42:54;5.10;;;2.20;;
19897;SDS011;10111;50.814;4.572;2023-04-25T14:45:19;2.80;;;1.57;;
19897;SDS011;10111;50.814;4.572;2023-04-25T14:47:45;6.00;;;1.77;;
19897;SDS011;10111;50.814;4.572;2023-04-25T14:50:10;3.73;;;1.13;;
19897;SDS011;10111;50.814;4.572;2023-04-25T14:52:36;3.70;;;2.80;;
19897;SDS011;10111;50.814;4.572;2023-04-25T14:55:02;2.90;;;1.30;;
19897;SDS011;10111;50.814;4.572;2023-04-25T14:57:31;2.40;;;1.77;;
19897;SDS011;10111;50.814;4.572;2023-04-25T14:59:57;4.10;;;1.43;;